Roma Nord-Capena

IT-0873 · 拉齐奥, 意大利

罗盘
风向 的 风向 的 风向 到 风向 230° Roma Nord-Capena 12/30
风: 5 kt, 2 beaufort

1 kt

5 kt
改变
0 ft 1.000 2.000 3.000 4.000 5.000
CAVOK
METAR LIRG 151155Z 23005KT 110V260 CAVOK 37/14 Q1013 RMK SKC MON NE LIB NC VIS MIN 9999 BLU

METAR Roma Nord-Capena - IT-0873

Roma Nord-Capena是,意大利中的小机场。 该机场位于纬度42,12302和经度12,60723。 该机场有2条跑道: 12/30 和 8/26. 这个机场没有ICAO代码,我们使用IT-0873作为参考。 机场在Roma FIR中。

该航空气象观测是针对Guidonia Air Base在2024年7月15日 13:55, 当地时间进行的。

机场观察

风向为230°,速度为5 kt。 风向在110°和260°之间变化。

天气为CAVOK。这意味着在5.000 ft或MSA(最低安全高度)以下(以较高者为准)以下没有云。这也意味着没有观测到积雨云或高耸的积云,可见度为10 km 或者更多或更高。此外,不会有雾,降雨或其他重要天气。

温度和风寒是37 °C。 露点为14 °C,相对湿度为25%。 海平面上的气压为1013 hPa (QNH)。

白天

今天,太阳从05:47升起,在20:43降落。 这适用于Roma Nord-Capena,世界夏令时可能有所不同。 当地时间与世界标准时间之间的时差为+2 小时。 夏令时目前正在进行中。

公司介绍

我们没有关于这个机场的公司信息。

体会

到Vliegles.nl去找飞行课程,跳伞和其他飞行体验。 浏览页面,了解Roma Nord-Capena附近所有可用的活动。 你也可以使用搜索功能来寻找你所在地附近的特定飞行课程、跳伞或其他飞行体验。

跑道

Id 标题 侧风 逆风 侧风 %
12/30 126°-306° 5 kt 1 kt 97 %
8/26 088°-268° 3 kt 4 kt 62 %

逆风成分最大的方向会被突出显示,并用于横风计算。 这并不一定意味着这个方向在使用。

温度 & 天气

温度 37 °C
露点 14 °C
相对湿度 25%
Kp-index 0 (0-9)

评论

SKC MON NE LIB NC VIS MIN 9999

白天

日出
05:47
中午
13:15
日落
20:42 (6:16)

小工具

你想在你的网站上有一个关于Roma Nord-Capena的当前航空天气(METAR)的小部件吗?

显示HTML代码
报告变更